Time;durP1;ratioP1;P1;durP2;ratioP2;P2;SDS_P1;SDS_P2;PMS_P1;PMS_P2;Temp;Humidity;BMP_temperature;BMP_pressure;BME280_temperature;BME280_humidity;BME280_pressure;Samples;Min_cycle;Max_cycle;Signal;HPM_P1;HPM_P2
2024/01/21 00:01:43;;;;;;;24.38;10.90;;;;;;;;;;5064295;28;20569;-76
2024/01/21 00:04:11;;;;;;;26.00;10.50;;;;;;;;;;5050307;28;20035;-74
2024/01/21 00:06:40;;;;;;;22.60;10.30;;;;;;;;;;5047288;28;20500;-76
2024/01/21 00:09:08;;;;;;;24.33;10.13;;;;;;;;;;5053217;28;20027;-75
2024/01/21 00:11:36;;;;;;;25.25;10.07;;;;;;;;;;5045440;28;20035;-74
2024/01/21 00:14:05;;;;;;;21.52;9.82;;;;;;;;;;5053951;28;20648;-73
2024/01/21 00:16:52;;;;;;;22.45;9.90;;;;;;;;;;5048587;28;20078;-74
2024/01/21 00:19:23;;;;;;;25.40;9.20;;;;;;;;;;5064470;28;20036;-73
2024/01/21 00:21:52;;;;;;;22.10;8.35;;;;;;;;;;5051112;28;20048;-74
2024/01/21 00:24:21;;;;;;;18.92;7.22;;;;;;;;;;5046093;28;20759;-73
2024/01/21 00:26:48;;;;;;;20.92;7.80;;;;;;;;;;5052026;28;20032;-72
2024/01/21 00:29:17;;;;;;;20.40;7.38;;;;;;;;;;5051386;28;20031;-75
2024/01/21 00:31:44;;;;;;;18.33;7.53;;;;;;;;;;5068044;28;20040;-73
2024/01/21 00:34:13;;;;;;;17.40;7.10;;;;;;;;;;5065571;28;20028;-75
2024/01/21 00:36:40;;;;;;;21.52;7.85;;;;;;;;;;5056398;28;20115;-75
2024/01/21 00:39:09;;;;;;;21.65;8.25;;;;;;;;;;5035058;28;20480;-75
2024/01/21 00:41:36;;;;;;;18.88;7.80;;;;;;;;;;5049235;28;20034;-73
2024/01/21 00:44:08;;;;;;;18.60;7.72;;;;;;;;;;5066387;28;20122;-73
2024/01/21 00:46:41;;;;;;;19.08;7.65;;;;;;;;;;5064445;28;20067;-74
2024/01/21 00:49:08;;;;;;;21.95;8.93;;;;;;;;;;5053843;28;20032;-74
2024/01/21 00:51:38;;;;;;;20.45;9.02;;;;;;;;;;5064328;28;20028;-74
2024/01/21 00:54:08;;;;;;;22.60;8.93;;;;;;;;;;5052888;28;20024;-75
2024/01/21 00:56:37;;;;;;;20.40;8.38;;;;;;;;;;5061530;28;20035;-75
2024/01/21 00:59:06;;;;;;;18.45;7.38;;;;;;;;;;5052783;28;20121;-74
2024/01/21 01:01:37;;;;;;;20.58;7.18;;;;;;;;;;5064699;28;20040;-74
2024/01/21 01:04:08;;;;;;;20.38;7.20;;;;;;;;;;5066473;28;20040;-74
2024/01/21 01:06:36;;;;;;;17.90;6.53;;;;;;;;;;5049663;28;20065;-75
2024/01/21 01:09:05;;;;;;;18.27;6.45;;;;;;;;;;5052003;28;20036;-74
2024/01/21 01:11:32;;;;;;;19.00;6.60;;;;;;;;;;5066575;28;20119;-74
2024/01/21 01:14:03;;;;;;;17.92;5.45;;;;;;;;;;5064130;28;20277;-75
2024/01/21 01:16:41;;;;;;;15.55;6.28;;;;;;;;;;5063436;28;20028;-75
2024/01/21 01:19:31;;;;;;;19.50;6.05;;;;;;;;;;5048541;28;20418;-74
2024/01/21 01:22:01;;;;;;;16.98;6.10;;;;;;;;;;5067661;28;20062;-72
2024/01/21 01:24:30;;;;;;;18.90;6.50;;;;;;;;;;5063842;28;20120;-75
2024/01/21 01:26:58;;;;;;;17.05;5.88;;;;;;;;;;5066788;28;20115;-75
2024/01/21 01:29:47;;;;;;;18.15;6.53;;;;;;;;;;5065469;28;20040;-75
2024/01/21 01:32:15;;;;;;;16.73;6.35;;;;;;;;;;5040090;28;20072;-76
2024/01/21 01:34:41;;;;;;;16.55;6.75;;;;;;;;;;5048076;28;20037;-75
2024/01/21 01:37:09;;;;;;;20.25;6.80;;;;;;;;;;5045760;28;20484;-75
2024/01/21 01:39:36;;;;;;;19.45;6.38;;;;;;;;;;5043213;28;20590;-76
2024/01/21 01:42:04;;;;;;;20.60;5.53;;;;;;;;;;5044511;28;20049;-75
2024/01/21 01:44:33;;;;;;;19.50;6.25;;;;;;;;;;5043303;28;20036;-75
2024/01/21 01:47:02;;;;;;;17.95;5.82;;;;;;;;;;5045891;28;20130;-75
2024/01/21 01:49:30;;;;;;;15.48;5.90;;;;;;;;;;5039798;28;20040;-74
2024/01/21 01:51:59;;;;;;;18.50;6.82;;;;;;;;;;5044710;28;20039;-76
2024/01/21 01:54:29;;;;;;;17.35;7.00;;;;;;;;;;5043113;28;20032;-74
2024/01/21 01:57:06;;;;;;;17.10;6.72;;;;;;;;;;5043451;28;20157;-73
2024/01/21 01:59:37;;;;;;;16.05;6.53;;;;;;;;;;5060513;28;21124;-74
2024/01/21 02:02:08;;;;;;;18.10;5.25;;;;;;;;;;5045038;28;20541;-74
2024/01/21 02:04:38;;;;;;;18.33;5.65;;;;;;;;;;5047014;28;20895;-74
2024/01/21 02:07:07;;;;;;;19.40;5.65;;;;;;;;;;5046238;28;20033;-73
2024/01/21 02:09:34;;;;;;;18.63;5.25;;;;;;;;;;5045202;28;20119;-73
2024/01/21 02:12:02;;;;;;;14.20;4.75;;;;;;;;;;5052192;28;20021;-74
2024/01/21 02:14:31;;;;;;;14.48;4.63;;;;;;;;;;5044130;28;20071;-73
2024/01/21 02:16:57;;;;;;;16.20;4.70;;;;;;;;;;5051661;28;20025;-73
2024/01/21 02:19:30;;;;;;;14.38;4.70;;;;;;;;;;5045447;28;20719;-74
2024/01/21 02:21:58;;;;;;;15.38;4.43;;;;;;;;;;5051064;28;20060;-74
2024/01/21 02:24:33;;;;;;;15.65;4.68;;;;;;;;;;5047273;28;20635;-73
2024/01/21 02:27:02;;;;;;;13.65;4.75;;;;;;;;;;5045299;28;20501;-74
2024/01/21 02:29:33;;;;;;;17.75;4.70;;;;;;;;;;5047210;28;20063;-74
2024/01/21 02:32:02;;;;;;;14.13;4.50;;;;;;;;;;5050378;28;20032;-74
2024/01/21 02:34:31;;;;;;;14.07;4.22;;;;;;;;;;5047696;28;20052;-74
2024/01/21 02:37:00;;;;;;;15.90;4.20;;;;;;;;;;5048291;28;20871;-73
2024/01/21 02:39:29;;;;;;;17.80;4.50;;;;;;;;;;5044672;28;20114;-74
2024/01/21 02:41:56;;;;;;;15.88;3.95;;;;;;;;;;5050817;28;20468;-74
2024/01/21 02:44:24;;;;;;;18.55;4.18;;;;;;;;;;5046232;28;20912;-74
2024/01/21 02:46:52;;;;;;;15.75;4.22;;;;;;;;;;5050047;28;20035;-73
2024/01/21 02:49:21;;;;;;;15.65;4.10;;;;;;;;;;5045565;28;20493;-74
2024/01/21 02:51:47;;;;;;;15.27;4.40;;;;;;;;;;5045772;28;20043;-76
2024/01/21 02:54:16;;;;;;;15.77;4.55;;;;;;;;;;5046557;28;20194;-74
2024/01/21 02:56:44;;;;;;;16.38;5.50;;;;;;;;;;5051886;28;20017;-74
2024/01/21 02:59:13;;;;;;;15.18;6.45;;;;;;;;;;5049145;28;20033;-74
2024/01/21 03:01:40;;;;;;;13.52;6.00;;;;;;;;;;5050083;28;20275;-74
2024/01/21 03:04:12;;;;;;;18.20;5.57;;;;;;;;;;5048081;28;20059;-74
2024/01/21 03:06:40;;;;;;;15.95;5.20;;;;;;;;;;5049142;28;20037;-74
2024/01/21 03:09:09;;;;;;;12.43;4.07;;;;;;;;;;5048106;28;20036;-74
2024/01/21 03:11:40;;;;;;;15.98;4.57;;;;;;;;;;5047541;28;20082;-74
2024/01/21 03:14:07;;;;;;;17.38;4.80;;;;;;;;;;5032319;28;20056;-74
2024/01/21 03:16:36;;;;;;;12.32;3.85;;;;;;;;;;5049122;28;20032;-74
2024/01/21 03:19:07;;;;;;;16.67;4.30;;;;;;;;;;5051708;28;20136;-73
2024/01/21 03:21:35;;;;;;;18.05;4.97;;;;;;;;;;5047504;28;20415;-76
2024/01/21 03:24:03;;;;;;;16.75;4.70;;;;;;;;;;5047985;28;20038;-74
2024/01/21 03:26:32;;;;;;;15.30;5.00;;;;;;;;;;5047756;28;20298;-72
2024/01/21 03:28:59;;;;;;;14.75;5.40;;;;;;;;;;5050506;28;20020;-74
2024/01/21 03:31:30;;;;;;;15.45;4.10;;;;;;;;;;5049560;28;20035;-74
2024/01/21 03:33:59;;;;;;;12.55;4.10;;;;;;;;;;5069580;28;20077;-74
2024/01/21 03:36:28;;;;;;;15.80;3.92;;;;;;;;;;5068144;28;20526;-74
2024/01/21 03:38:55;;;;;;;14.15;3.92;;;;;;;;;;5049089;28;20036;-74
2024/01/21 03:41:23;;;;;;;14.88;4.28;;;;;;;;;;5064781;28;20043;-73
2024/01/21 03:43:56;;;;;;;17.92;5.15;;;;;;;;;;5065954;28;20028;-74
2024/01/21 03:46:25;;;;;;;17.15;4.97;;;;;;;;;;5066412;28;20027;-74
2024/01/21 03:48:53;;;;;;;15.02;4.50;;;;;;;;;;5050326;28;20621;-74
2024/01/21 03:51:21;;;;;;;16.20;4.22;;;;;;;;;;5051066;28;20036;-74
2024/01/21 03:53:49;;;;;;;13.82;4.10;;;;;;;;;;5052357;28;20027;-74
2024/01/21 03:56:21;;;;;;;14.68;3.92;;;;;;;;;;5067000;28;20121;-74
2024/01/21 03:58:54;;;;;;;15.40;4.35;;;;;;;;;;5064098;28;20111;-73
2024/01/21 04:01:23;;;;;;;16.92;4.93;;;;;;;;;;5053453;28;20040;-74
2024/01/21 04:03:53;;;;;;;13.95;4.25;;;;;;;;;;5050253;28;20537;-74
2024/01/21 04:06:22;;;;;;;12.85;4.05;;;;;;;;;;5052206;28;20557;-74
2024/01/21 04:08:54;;;;;;;13.75;3.90;;;;;;;;;;5067221;28;20040;-73
2024/01/21 04:11:26;;;;;;;14.20;4.20;;;;;;;;;;5064072;28;20036;-73
2024/01/21 04:13:54;;;;;;;12.98;3.90;;;;;;;;;;5067233;28;20078;-74
2024/01/21 04:16:26;;;;;;;16.30;3.83;;;;;;;;;;5050389;28;20024;-74
2024/01/21 04:18:53;;;;;;;12.38;3.60;;;;;;;;;;5065171;28;20170;-73
2024/01/21 04:21:22;;;;;;;15.45;3.92;;;;;;;;;;5029652;28;20047;-73
2024/01/21 04:23:49;;;;;;;15.95;4.07;;;;;;;;;;5070033;28;20028;-74
2024/01/21 04:26:16;;;;;;;13.18;3.70;;;;;;;;;;5063296;28;20035;-74
2024/01/21 04:28:45;;;;;;;15.05;4.57;;;;;;;;;;5066795;28;20020;-74
2024/01/21 04:31:13;;;;;;;12.35;3.40;;;;;;;;;;5044818;28;20031;-74
2024/01/21 04:33:42;;;;;;;15.30;3.97;;;;;;;;;;5031260;28;20044;-74
2024/01/21 04:36:20;;;;;;;14.43;3.33;;;;;;;;;;5029833;28;20036;-74
2024/01/21 04:38:48;;;;;;;14.32;3.80;;;;;;;;;;5015311;28;20060;-74
2024/01/21 04:41:17;;;;;;;16.00;4.30;;;;;;;;;;5025530;28;20030;-74
2024/01/21 04:43:46;;;;;;;15.93;3.80;;;;;;;;;;5033228;28;20021;-74
2024/01/21 04:46:14;;;;;;;15.07;3.65;;;;;;;;;;5029773;28;20485;-74
2024/01/21 04:48:43;;;;;;;15.82;4.25;;;;;;;;;;5025396;28;20577;-74
2024/01/21 04:51:14;;;;;;;14.25;4.05;;;;;;;;;;5033320;28;20044;-75
2024/01/21 04:53:42;;;;;;;15.95;4.47;;;;;;;;;;5029205;28;20125;-74
2024/01/21 04:56:17;;;;;;;16.05;3.85;;;;;;;;;;5030489;28;20148;-73
2024/01/21 04:58:45;;;;;;;12.15;3.85;;;;;;;;;;5027215;28;20039;-73
2024/01/21 05:01:15;;;;;;;15.93;4.63;;;;;;;;;;5027815;28;20036;-73
2024/01/21 05:03:43;;;;;;;16.90;5.03;;;;;;;;;;5030402;28;20025;-73
2024/01/21 05:06:11;;;;;;;17.08;5.72;;;;;;;;;;5026359;28;20040;-76
2024/01/21 05:08:40;;;;;;;17.23;5.45;;;;;;;;;;5025253;28;20033;-75
2024/01/21 05:11:09;;;;;;;17.90;5.60;;;;;;;;;;5031230;28;20131;-74
2024/01/21 05:13:37;;;;;;;18.40;5.40;;;;;;;;;;5025089;28;20017;-74
2024/01/21 05:16:27;;;;;;;15.23;4.80;;;;;;;;;;5029253;28;20037;-74
2024/01/21 05:18:56;;;;;;;14.30;4.38;;;;;;;;;;5025081;28;20049;-73
2024/01/21 05:21:25;;;;;;;16.52;4.20;;;;;;;;;;5028581;28;20036;-76
2024/01/21 05:23:54;;;;;;;14.10;3.85;;;;;;;;;;5022529;28;20025;-75
2024/01/21 05:26:21;;;;;;;14.90;4.07;;;;;;;;;;5027598;28;20128;-75
2024/01/21 05:28:52;;;;;;;15.65;4.00;;;;;;;;;;5032787;28;20039;-74
2024/01/21 05:31:28;;;;;;;15.38;4.10;;;;;;;;;;5023424;28;20060;-75
2024/01/21 05:33:54;;;;;;;16.08;4.72;;;;;;;;;;5049713;28;20083;-75
2024/01/21 05:36:23;;;;;;;12.52;4.05;;;;;;;;;;5051115;28;20110;-75
2024/01/21 05:39:10;;;;;;;14.18;3.65;;;;;;;;;;5046408;28;20090;-75
2024/01/21 05:42:01;;;;;;;14.80;3.85;;;;;;;;;;5045070;28;20534;-75
2024/01/21 05:44:27;;;;;;;12.75;4.18;;;;;;;;;;5045281;28;20182;-75
2024/01/21 05:46:55;;;;;;;13.90;4.10;;;;;;;;;;5050794;28;20031;-75
2024/01/21 05:49:24;;;;;;;14.43;4.15;;;;;;;;;;5047103;28;20020;-75
2024/01/21 05:51:51;;;;;;;14.90;4.32;;;;;;;;;;5050696;28;20610;-74
2024/01/21 05:54:19;;;;;;;11.98;3.65;;;;;;;;;;5047212;28;20029;-75
2024/01/21 05:56:48;;;;;;;14.65;3.63;;;;;;;;;;5047683;28;20896;-75
2024/01/21 05:59:17;;;;;;;13.38;3.80;;;;;;;;;;5048994;28;20032;-75
2024/01/21 06:01:50;;;;;;;13.00;3.75;;;;;;;;;;5050514;28;20048;-74
2024/01/21 06:04:18;;;;;;;16.83;4.13;;;;;;;;;;5047570;28;20124;-76
2024/01/21 06:06:51;;;;;;;15.15;4.13;;;;;;;;;;5045535;28;20541;-76
2024/01/21 06:09:20;;;;;;;15.85;3.90;;;;;;;;;;5045253;28;20457;-75
2024/01/21 06:11:49;;;;;;;14.05;3.80;;;;;;;;;;5044439;28;20290;-75
2024/01/21 06:14:15;;;;;;;13.95;3.70;;;;;;;;;;5043998;28;20025;-75
2024/01/21 06:16:44;;;;;;;15.68;3.78;;;;;;;;;;5053728;28;20032;-75
2024/01/21 06:19:13;;;;;;;13.88;3.97;;;;;;;;;;5051004;28;20540;-75
2024/01/21 06:22:06;;;;;;;14.98;3.63;;;;;;;;;;5051516;28;20036;-75
2024/01/21 06:24:39;;;;;;;15.98;3.97;;;;;;;;;;5045589;28;20043;-75
2024/01/21 06:27:07;;;;;;;12.93;3.65;;;;;;;;;;5046027;28;20033;-75
2024/01/21 06:29:35;;;;;;;17.80;3.97;;;;;;;;;;5045656;28;20029;-75
2024/01/21 06:32:04;;;;;;;12.63;3.67;;;;;;;;;;5054137;28;20032;-76
2024/01/21 06:34:33;;;;;;;12.75;3.50;;;;;;;;;;5067857;28;20032;-75
2024/01/21 06:37:01;;;;;;;13.63;3.85;;;;;;;;;;5069414;28;20198;-75
2024/01/21 06:39:29;;;;;;;14.18;4.00;;;;;;;;;;5050965;28;20856;-75
2024/01/21 06:41:58;;;;;;;12.50;3.78;;;;;;;;;;5068226;28;20088;-74
2024/01/21 06:44:29;;;;;;;11.77;3.90;;;;;;;;;;5062177;28;20127;-74
2024/01/21 06:46:55;;;;;;;16.83;4.03;;;;;;;;;;5066564;28;20764;-74
2024/01/21 06:49:25;;;;;;;13.23;3.97;;;;;;;;;;5068250;28;20028;-75
2024/01/21 06:51:55;;;;;;;14.73;3.80;;;;;;;;;;5070144;28;20143;-73
2024/01/21 06:54:23;;;;;;;14.98;3.83;;;;;;;;;;5064159;28;20040;-74
2024/01/21 06:56:51;;;;;;;14.32;3.83;;;;;;;;;;5072286;28;20024;-74
2024/01/21 06:59:20;;;;;;;12.43;4.00;;;;;;;;;;5051089;28;20089;-75
2024/01/21 07:01:48;;;;;;;17.17;4.85;;;;;;;;;;5068607;28;20526;-75
2024/01/21 07:04:20;;;;;;;13.60;4.47;;;;;;;;;;5051522;28;20039;-74
2024/01/21 07:06:48;;;;;;;16.10;4.70;;;;;;;;;;5069494;28;20024;-74
2024/01/21 07:09:17;;;;;;;16.13;4.63;;;;;;;;;;5052537;28;20036;-74
2024/01/21 07:11:46;;;;;;;17.67;5.00;;;;;;;;;;5054466;28;20029;-74
2024/01/21 07:14:13;;;;;;;16.85;5.32;;;;;;;;;;5049396;28;20035;-74
2024/01/21 07:16:39;;;;;;;15.75;5.68;;;;;;;;;;5052024;28;20324;-76
2024/01/21 07:19:08;;;;;;;16.73;6.90;;;;;;;;;;5056434;28;20036;-74
2024/01/21 07:21:35;;;;;;;21.42;7.60;;;;;;;;;;5069709;28;20031;-74
2024/01/21 07:24:05;;;;;;;26.48;10.27;;;;;;;;;;5050269;28;20066;-74
2024/01/21 07:26:33;;;;;;;23.55;10.90;;;;;;;;;;5047966;28;20040;-74
2024/01/21 07:29:01;;;;;;;24.85;10.75;;;;;;;;;;5065276;28;20032;-74
2024/01/21 07:31:30;;;;;;;27.77;12.73;;;;;;;;;;5035580;28;20691;-75
2024/01/21 07:34:01;;;;;;;24.25;11.50;;;;;;;;;;5069402;28;20044;-76
2024/01/21 07:36:31;;;;;;;21.25;9.70;;;;;;;;;;5060072;28;20542;-75
2024/01/21 07:39:00;;;;;;;20.67;8.88;;;;;;;;;;5053017;28;20028;-74
2024/01/21 07:41:28;;;;;;;21.27;7.85;;;;;;;;;;5067598;28;20032;-74
2024/01/21 07:43:56;;;;;;;18.92;7.35;;;;;;;;;;5053069;28;20032;-73
2024/01/21 07:46:24;;;;;;;17.63;7.18;;;;;;;;;;5050578;28;20896;-76
2024/01/21 07:48:53;;;;;;;19.52;6.72;;;;;;;;;;5048307;28;20111;-74
2024/01/21 07:51:21;;;;;;;17.58;6.35;;;;;;;;;;5067885;28;20747;-75
2024/01/21 07:53:51;;;;;;;14.45;5.78;;;;;;;;;;5069815;28;20127;-75
2024/01/21 07:56:19;;;;;;;17.02;5.82;;;;;;;;;;5047967;28;20059;-75
2024/01/21 07:58:48;;;;;;;15.68;6.55;;;;;;;;;;5054666;28;20146;-75
2024/01/21 08:01:20;;;;;;;17.83;6.10;;;;;;;;;;5071732;28;20047;-75
2024/01/21 08:03:48;;;;;;;17.65;5.32;;;;;;;;;;5066264;28;20042;-75
2024/01/21 08:06:16;;;;;;;18.23;4.88;;;;;;;;;;5049070;28;20447;-76
2024/01/21 08:08:45;;;;;;;15.40;5.32;;;;;;;;;;5052669;28;20036;-76
2024/01/21 08:11:13;;;;;;;12.27;4.22;;;;;;;;;;5052145;28;20090;-76
2024/01/21 08:13:42;;;;;;;14.80;4.72;;;;;;;;;;5050470;28;20329;-75
2024/01/21 08:16:13;;;;;;;17.05;5.30;;;;;;;;;;5054032;28;20020;-75
2024/01/21 08:18:41;;;;;;;16.55;4.15;;;;;;;;;;5067171;28;20131;-75
2024/01/21 08:21:10;;;;;;;17.65;4.72;;;;;;;;;;5055610;28;20035;-75
2024/01/21 08:23:40;;;;;;;15.73;4.60;;;;;;;;;;5051127;28;20146;-74
2024/01/21 08:26:10;;;;;;;13.30;4.68;;;;;;;;;;5069658;28;20039;-74
2024/01/21 08:28:47;;;;;;;14.18;4.20;;;;;;;;;;5069656;28;20050;-74
2024/01/21 08:31:17;;;;;;;13.73;4.90;;;;;;;;;;5050561;28;20043;-75
2024/01/21 08:33:44;;;;;;;14.73;4.75;;;;;;;;;;5053915;28;20055;-75
2024/01/21 08:36:13;;;;;;;14.65;4.70;;;;;;;;;;5054328;28;20037;-75
2024/01/21 08:38:42;;;;;;;12.20;4.00;;;;;;;;;;5058261;28;20028;-75
2024/01/21 08:41:09;;;;;;;11.75;4.15;;;;;;;;;;5048851;28;20489;-75
2024/01/21 08:43:38;;;;;;;13.82;4.28;;;;;;;;;;5047888;28;20028;-74
2024/01/21 08:46:07;;;;;;;15.80;4.80;;;;;;;;;;5052073;28;20037;-76
2024/01/21 08:48:55;;;;;;;11.40;4.30;;;;;;;;;;5043935;28;20130;-75
2024/01/21 08:51:21;;;;;;;12.68;4.38;;;;;;;;;;5039392;28;20040;-77
2024/01/21 08:53:56;;;;;;;13.00;4.72;;;;;;;;;;5044583;28;20032;-74
2024/01/21 08:56:28;;;;;;;12.77;4.40;;;;;;;;;;5041331;28;20620;-75
2024/01/21 08:58:56;;;;;;;13.35;4.60;;;;;;;;;;5038957;28;20072;-76
2024/01/21 09:01:25;;;;;;;15.75;4.57;;;;;;;;;;5041100;28;20223;-74
2024/01/21 09:03:52;;;;;;;13.48;4.72;;;;;;;;;;5043374;28;20093;-74
2024/01/21 09:06:21;;;;;;;16.17;4.75;;;;;;;;;;5041524;28;20029;-75
2024/01/21 09:08:54;;;;;;;14.00;4.63;;;;;;;;;;5047051;28;20024;-74
2024/01/21 09:11:24;;;;;;;13.70;5.15;;;;;;;;;;5042037;28;20020;-76
2024/01/21 09:13:53;;;;;;;16.52;5.15;;;;;;;;;;5045538;28;20044;-78
2024/01/21 09:16:23;;;;;;;16.23;5.20;;;;;;;;;;5041216;28;20460;-74
2024/01/21 09:19:13;;;;;;;14.30;5.45;;;;;;;;;;5046396;28;20098;-75
2024/01/21 09:21:42;;;;;;;12.30;4.85;;;;;;;;;;5047622;28;20489;-76
2024/01/21 09:24:11;;;;;;;14.80;4.90;;;;;;;;;;5046734;28;20692;-75
2024/01/21 09:26:39;;;;;;;13.43;5.10;;;;;;;;;;5048416;28;20064;-76
2024/01/21 09:29:09;;;;;;;14.75;5.75;;;;;;;;;;5048065;28;20048;-76
2024/01/21 09:31:55;;;;;;;16.00;5.25;;;;;;;;;;5045812;28;20040;-76
2024/01/21 09:34:52;;;;;;;15.18;5.60;;;;;;;;;;5025839;28;20053;-75
2024/01/21 09:37:28;;;;;;;;;;;;;;;;;;5024093;28;20047;-76
2024/01/21 09:39:57;;;;;;;13.68;4.95;;;;;;;;;;5026737;28;19920;-74
2024/01/21 09:42:23;;;;;;;13.38;4.20;;;;;;;;;;5026153;28;20063;-74
2024/01/21 09:44:49;;;;;;;;;;;;;;;;;;5041532;28;20036;-74
2024/01/21 09:47:16;;;;;;;14.15;5.65;;;;;;;;;;5024637;28;19916;-74
2024/01/21 09:49:49;;;;;;;14.15;5.85;;;;;;;;;;5025431;28;20091;-74
2024/01/21 09:52:20;;;;;;;13.88;5.00;;;;;;;;;;5023307;28;20033;-74
2024/01/21 09:54:50;;;;;;;14.48;6.55;;;;;;;;;;5027511;28;20029;-75
2024/01/21 09:57:18;;;;;;;13.93;6.50;;;;;;;;;;5024285;28;20640;-77
2024/01/21 09:59:56;;;;;;;13.10;5.90;;;;;;;;;;5026784;28;20036;-75
2024/01/21 10:02:26;;;;;;;12.05;4.97;;;;;;;;;;5024628;28;20692;-76
2024/01/21 10:04:55;;;;;;;13.23;4.97;;;;;;;;;;5012208;28;21013;-73
2024/01/21 10:07:23;;;;;;;12.77;4.90;;;;;;;;;;5030089;28;20029;-75
2024/01/21 10:09:57;;;;;;;13.60;4.93;;;;;;;;;;5010847;28;20057;-76
2024/01/21 10:12:25;;;;;;;12.60;4.82;;;;;;;;;;5023152;28;20048;-76
2024/01/21 10:14:54;;;;;;;13.98;5.35;;;;;;;;;;5025999;28;20136;-76
2024/01/21 10:17:25;;;;;;;14.75;4.90;;;;;;;;;;5038393;28;20631;-74
2024/01/21 10:19:54;;;;;;;11.68;4.55;;;;;;;;;;5023394;28;20343;-74
2024/01/21 10:22:29;;;;;;;16.38;5.70;;;;;;;;;;5022321;28;20087;-74
2024/01/21 10:25:01;;;;;;;14.73;4.57;;;;;;;;;;5027976;28;20107;-75
2024/01/21 10:27:32;;;;;;;13.18;4.43;;;;;;;;;;5023620;28;20037;-75
2024/01/21 10:30:00;;;;;;;13.35;3.72;;;;;;;;;;5028026;28;20086;-76
2024/01/21 10:32:28;;;;;;;13.15;4.43;;;;;;;;;;5029916;28;20113;-76
2024/01/21 10:34:57;;;;;;;11.63;3.50;;;;;;;;;;5043415;28;20059;-74
2024/01/21 10:37:27;;;;;;;13.85;3.90;;;;;;;;;;5038335;28;20041;-74
2024/01/21 10:39:56;;;;;;;12.75;4.85;;;;;;;;;;5038984;28;20040;-75
2024/01/21 10:42:25;;;;;;;14.05;6.25;;;;;;;;;;5023407;28;20044;-75
2024/01/21 10:44:55;;;;;;;14.85;5.80;;;;;;;;;;5040510;28;20544;-74
2024/01/21 10:47:24;;;;;;;12.40;5.10;;;;;;;;;;5041629;28;20032;-74
2024/01/21 10:49:53;;;;;;;13.07;5.15;;;;;;;;;;5041647;28;20780;-75
2024/01/21 10:52:20;;;;;;;15.35;5.55;;;;;;;;;;5041662;28;20077;-75
2024/01/21 10:54:47;;;;;;;14.45;6.22;;;;;;;;;;5041437;28;20033;-76
2024/01/21 10:57:17;;;;;;;14.50;5.25;;;;;;;;;;5043408;28;20039;-77
2024/01/21 10:59:51;;;;;;;14.02;4.78;;;;;;;;;;5045804;28;20075;-75
2024/01/21 11:02:19;;;;;;;13.07;4.25;;;;;;;;;;5036218;28;20528;-75
2024/01/21 11:04:47;;;;;;;11.98;3.55;;;;;;;;;;5041694;28;20040;-75
2024/01/21 11:07:38;;;;;;;12.90;4.10;;;;;;;;;;5042426;28;20036;-75
2024/01/21 11:10:06;;;;;;;11.15;3.53;;;;;;;;;;5043261;28;20032;-76
2024/01/21 11:12:35;;;;;;;15.85;5.47;;;;;;;;;;5052057;28;20575;-75
2024/01/21 11:15:22;;;;;;;12.57;4.40;;;;;;;;;;5048869;28;20024;-75
2024/01/21 11:17:50;;;;;;;12.38;4.50;;;;;;;;;;5046216;28;20044;-75
2024/01/21 11:20:26;;;;;;;10.93;3.30;;;;;;;;;;5043234;28;20026;-76
2024/01/21 11:23:07;;;;;;;11.65;3.70;;;;;;;;;;5048358;28;20040;-76
2024/01/21 11:25:35;;;;;;;13.40;3.75;;;;;;;;;;5045966;28;20039;-77
2024/01/21 11:28:05;;;;;;;11.52;3.95;;;;;;;;;;5042639;28;20036;-75
2024/01/21 11:30:33;;;;;;;11.55;3.78;;;;;;;;;;5046652;28;20089;-75
2024/01/21 11:33:01;;;;;;;10.77;2.85;;;;;;;;;;5027969;28;20083;-74
2024/01/21 11:35:31;;;;;;;13.85;6.13;;;;;;;;;;5046151;28;20037;-77
2024/01/21 11:37:59;;;;;;;11.82;4.25;;;;;;;;;;5049889;28;20029;-76
2024/01/21 11:40:27;;;;;;;13.13;5.43;;;;;;;;;;5047715;28;20029;-77
2024/01/21 11:42:53;;;;;;;10.48;3.38;;;;;;;;;;5047744;28;20617;-75
2024/01/21 11:45:21;;;;;;;9.32;3.40;;;;;;;;;;5044502;28;20897;-75
2024/01/21 11:47:48;;;;;;;9.30;3.03;;;;;;;;;;5048094;28;20507;-74
2024/01/21 11:50:19;;;;;;;12.80;3.03;;;;;;;;;;5046154;28;20051;-75
2024/01/21 11:52:46;;;;;;;12.05;3.65;;;;;;;;;;5051006;28;20065;-75
2024/01/21 11:55:14;;;;;;;12.82;3.72;;;;;;;;;;5050009;28;20024;-75
2024/01/21 11:57:41;;;;;;;11.55;3.10;;;;;;;;;;5049617;28;20061;-75
2024/01/21 12:00:08;;;;;;;13.68;3.75;;;;;;;;;;5049631;28;20089;-75
2024/01/21 12:02:35;;;;;;;13.40;4.80;;;;;;;;;;5046966;28;20036;-74
2024/01/21 12:05:01;;;;;;;12.15;4.35;;;;;;;;;;5049035;28;20020;-74
2024/01/21 12:07:27;;;;;;;12.57;4.05;;;;;;;;;;5046330;28;20528;-75
2024/01/21 12:09:54;;;;;;;10.13;3.03;;;;;;;;;;5050077;28;20098;-75
2024/01/21 12:12:21;;;;;;;13.07;4.18;;;;;;;;;;5048843;28;20028;-75
2024/01/21 12:14:48;;;;;;;11.02;4.15;;;;;;;;;;5051257;28;20145;-75
2024/01/21 12:17:15;;;;;;;11.50;3.97;;;;;;;;;;5049907;28;20111;-75
2024/01/21 12:19:41;;;;;;;10.73;2.92;;;;;;;;;;5049277;28;20025;-75
2024/01/21 12:22:07;;;;;;;10.55;2.85;;;;;;;;;;5049176;28;20047;-75
2024/01/21 12:24:33;;;;;;;9.82;3.08;;;;;;;;;;5043710;28;21141;-75
2024/01/21 12:27:00;;;;;;;9.57;2.83;;;;;;;;;;5048472;28;20115;-75
2024/01/21 12:29:36;;;;;;;9.15;2.58;;;;;;;;;;5048938;28;20599;-75
2024/01/21 12:32:04;;;;;;;7.75;2.70;;;;;;;;;;5050828;28;20040;-75
2024/01/21 12:34:34;;;;;;;11.60;3.33;;;;;;;;;;5048877;28;20099;-76
2024/01/21 12:37:00;;;;;;;10.95;3.10;;;;;;;;;;5047813;28;20031;-75
2024/01/21 12:39:26;;;;;;;9.13;3.42;;;;;;;;;;5050128;28;20101;-75
2024/01/21 12:41:52;;;;;;;9.50;3.53;;;;;;;;;;5051041;28;20024;-75
2024/01/21 12:44:18;;;;;;;10.30;4.28;;;;;;;;;;5046256;28;20040;-75
2024/01/21 12:46:47;;;;;;;13.48;4.57;;;;;;;;;;5049816;28;20143;-74
2024/01/21 12:49:13;;;;;;;10.73;3.83;;;;;;;;;;5050763;28;20036;-75
2024/01/21 12:51:42;;;;;;;44.33;39.65;;;;;;;;;;5050570;28;20035;-75
2024/01/21 12:54:08;;;;;;;69.18;54.95;;;;;;;;;;5046916;28;20028;-75
2024/01/21 12:56:35;;;;;;;57.90;44.90;;;;;;;;;;5049983;28;20039;-76
2024/01/21 12:59:01;;;;;;;32.10;23.20;;;;;;;;;;5048839;28;20037;-75
2024/01/21 13:01:27;;;;;;;20.63;14.45;;;;;;;;;;5048879;28;20047;-76
2024/01/21 13:03:54;;;;;;;12.77;6.18;;;;;;;;;;5051321;28;20847;-75
2024/01/21 13:06:21;;;;;;;12.88;6.03;;;;;;;;;;5049680;28;20115;-75
2024/01/21 13:08:47;;;;;;;13.15;7.32;;;;;;;;;;5050521;28;20039;-74
2024/01/21 13:11:14;;;;;;;13.98;7.85;;;;;;;;;;5049988;28;20081;-75
2024/01/21 13:13:40;;;;;;;11.65;4.78;;;;;;;;;;5052824;28;20028;-74
2024/01/21 13:16:08;;;;;;;9.57;3.30;;;;;;;;;;5051657;28;20028;-74
2024/01/21 13:18:34;;;;;;;9.85;3.45;;;;;;;;;;5048157;28;20543;-74
2024/01/21 13:21:02;;;;;;;9.88;3.45;;;;;;;;;;5051737;28;20135;-74
2024/01/21 13:23:28;;;;;;;11.20;4.40;;;;;;;;;;5054565;28;20040;-77
2024/01/21 13:25:54;;;;;;;11.63;4.18;;;;;;;;;;5057529;28;20040;-77
2024/01/21 13:30:55;;;;;;;9.80;3.50;;;;;;;;;;5061750;28;20024;-75
2024/01/21 13:33:22;;;;;;;15.90;4.72;;;;;;;;;;5046869;28;20076;-75
2024/01/21 13:35:48;;;;;;;13.93;6.75;;;;;;;;;;5047258;28;20025;-76
2024/01/21 13:38:29;;;;;;;15.10;9.82;;;;;;;;;;5045597;28;20049;-74
2024/01/21 13:40:56;;;;;;;12.63;7.38;;;;;;;;;;5043892;28;20037;-75
2024/01/21 13:43:22;;;;;;;25.63;16.75;;;;;;;;;;5039817;28;20067;-75
2024/01/21 13:45:48;;;;;;;16.92;7.07;;;;;;;;;;5038600;28;20787;-75
2024/01/21 13:48:17;;;;;;;11.23;4.40;;;;;;;;;;5035580;28;20029;-76
2024/01/21 13:50:44;;;;;;;40.70;29.75;;;;;;;;;;5029298;28;20013;-76
2024/01/21 13:53:10;;;;;;;49.08;34.38;;;;;;;;;;5032834;28;20116;-75
2024/01/21 13:55:40;;;;;;;50.03;35.15;;;;;;;;;;5034653;28;20116;-75
2024/01/21 13:58:07;;;;;;;25.85;17.08;;;;;;;;;;5030708;28;20131;-74
2024/01/21 14:00:33;;;;;;;97.47;65.00;;;;;;;;;;5033027;28;20028;-75
2024/01/21 14:03:00;;;;;;;22.83;13.25;;;;;;;;;;5037126;28;20786;-75
2024/01/21 14:05:27;;;;;;;12.25;5.45;;;;;;;;;;5027484;28;20028;-75
2024/01/21 14:07:53;;;;;;;9.70;3.90;;;;;;;;;;5030600;28;20025;-74
2024/01/21 14:10:20;;;;;;;10.20;3.97;;;;;;;;;;5032203;28;20021;-75
2024/01/21 14:12:48;;;;;;;11.35;3.60;;;;;;;;;;5026688;28;20025;-75
2024/01/21 14:15:14;;;;;;;8.95;3.00;;;;;;;;;;5022953;28;20037;-74
2024/01/21 14:17:41;;;;;;;10.38;3.92;;;;;;;;;;5029541;28;20792;-74
2024/01/21 14:20:08;;;;;;;10.85;4.40;;;;;;;;;;5032395;28;20033;-75
2024/01/21 14:22:35;;;;;;;9.05;3.58;;;;;;;;;;5030693;28;20033;-76
2024/01/21 14:25:05;;;;;;;8.90;3.40;;;;;;;;;;5028810;28;20055;-76
2024/01/21 14:27:32;;;;;;;10.75;2.95;;;;;;;;;;5029385;28;20037;-75
2024/01/21 14:30:01;;;;;;;7.40;2.50;;;;;;;;;;5028991;28;20132;-75
2024/01/21 14:32:28;;;;;;;9.52;3.40;;;;;;;;;;5039951;28;20056;-76
2024/01/21 14:34:54;;;;;;;10.95;3.78;;;;;;;;;;5051083;28;20036;-75
2024/01/21 14:37:20;;;;;;;9.85;4.20;;;;;;;;;;5049337;28;20036;-75
2024/01/21 14:39:47;;;;;;;10.27;4.50;;;;;;;;;;5048913;28;20032;-75
2024/01/21 14:42:15;;;;;;;10.38;4.72;;;;;;;;;;5048091;28;20028;-75
2024/01/21 14:44:41;;;;;;;12.05;5.07;;;;;;;;;;5051044;28;20039;-75
2024/01/21 14:47:07;;;;;;;12.82;5.32;;;;;;;;;;5050193;28;20028;-75